SKCL/CLO METAR and TAF weather

Enter ICAO airport designator
Station Type Date Time Source
SKCL METAR 2019/02/21 00:00 UTC NOAA

SKCL 210000Z 35006KT 9999 FEW020CB BKN100 26/19 A2988 RMK CB/SW


Station Type Date Time Source
SKCL Decoded METAR 2019/02/21 00:00 UTC NOAA

Cali / Alfonso Bonillaaragon, Colombia (SKCL) 03-33N 076-23W 969M
Feb 20, 2019 - 07:00 PM EST / 2019.02.21 0000 UTC
Wind: from the N (350 degrees) at 7 MPH (6 KT):0
Visibility: greater than 7 mile(s):0
Sky conditions: mostly cloudy
Weather: Cumulonimbus clouds observed
Temperature: 78 F (26 C)
Dew Point: 66 F (19 C)
Relative Humidity: 65%
Pressure (altimeter): 29.88 in. Hg (1011 hPa)
ob: SKCL 210000Z 35006KT 9999 FEW020CB BKN100 26/19 A2988 RMK CB/SW
cycle: 0

Station Type Date Time Source
SKCL TAF 2019/02/20 18:46 UTC NOAA

TAF SKCL 201700Z 2018/2118 29008KT 9999 SCT020TCU BKN250
TEMPO 2020/2023 VCSH SCT017TCU
BECMG 2100/2101 VRB02KT FEW017 SCT080
TEMPO 2111/2113 7000 VCFG TX31/2019Z TN19/2111Z


Example: see airport list